sensor_id;sensor_type;location;lat;lon;timestamp;P1;durP1;ratioP1;P2;durP2;ratioP2
30247;SDS011;17063;50.892;4.702;2022-08-02T00:01:17;8.37;;;2.10;;
30247;SDS011;17063;50.892;4.702;2022-08-02T00:03:44;6.47;;;2.07;;
30247;SDS011;17063;50.892;4.702;2022-08-02T00:06:11;3.17;;;1.93;;
30247;SDS011;17063;50.892;4.702;2022-08-02T00:08:38;4.00;;;1.80;;
30247;SDS011;17063;50.892;4.702;2022-08-02T00:11:04;2.93;;;1.90;;
30247;SDS011;17063;50.892;4.702;2022-08-02T00:13:31;8.47;;;2.37;;
30247;SDS011;17063;50.892;4.702;2022-08-02T00:15:58;5.17;;;2.00;;
30247;SDS011;17063;50.892;4.702;2022-08-02T00:18:25;3.03;;;1.67;;
30247;SDS011;17063;50.892;4.702;2022-08-02T00:20:52;5.67;;;2.50;;
30247;SDS011;17063;50.892;4.702;2022-08-02T00:23:19;4.63;;;2.20;;
30247;SDS011;17063;50.892;4.702;2022-08-02T00:25:46;5.87;;;2.17;;
30247;SDS011;17063;50.892;4.702;2022-08-02T00:28:21;3.23;;;2.10;;
30247;SDS011;17063;50.892;4.702;2022-08-02T00:30:54;4.27;;;2.00;;
30247;SDS011;17063;50.892;4.702;2022-08-02T00:33:22;7.40;;;2.10;;
30247;SDS011;17063;50.892;4.702;2022-08-02T00:36:09;5.20;;;1.97;;
30247;SDS011;17063;50.892;4.702;2022-08-02T00:38:36;3.83;;;2.00;;
30247;SDS011;17063;50.892;4.702;2022-08-02T00:41:03;6.53;;;2.50;;
30247;SDS011;17063;50.892;4.702;2022-08-02T00:43:37;6.37;;;2.03;;
30247;SDS011;17063;50.892;4.702;2022-08-02T00:46:04;5.70;;;2.00;;
30247;SDS011;17063;50.892;4.702;2022-08-02T00:48:30;3.50;;;2.10;;
30247;SDS011;17063;50.892;4.702;2022-08-02T00:50:57;8.40;;;2.00;;
30247;SDS011;17063;50.892;4.702;2022-08-02T00:53:24;2.07;;;1.90;;
30247;SDS011;17063;50.892;4.702;2022-08-02T00:55:52;5.23;;;2.10;;
30247;SDS011;17063;50.892;4.702;2022-08-02T00:58:19;5.90;;;2.00;;
30247;SDS011;17063;50.892;4.702;2022-08-02T01:00:46;6.83;;;2.43;;
30247;SDS011;17063;50.892;4.702;2022-08-02T01:03:13;5.20;;;2.10;;
30247;SDS011;17063;50.892;4.702;2022-08-02T01:05:40;5.97;;;1.90;;
30247;SDS011;17063;50.892;4.702;2022-08-02T01:08:26;8.50;;;2.30;;
30247;SDS011;17063;50.892;4.702;2022-08-02T01:10:56;3.73;;;2.03;;
30247;SDS011;17063;50.892;4.702;2022-08-02T01:13:23;3.77;;;2.00;;
30247;SDS011;17063;50.892;4.702;2022-08-02T01:15:54;7.50;;;2.43;;
30247;SDS011;17063;50.892;4.702;2022-08-02T01:18:34;4.87;;;2.13;;
30247;SDS011;17063;50.892;4.702;2022-08-02T01:21:08;4.07;;;2.50;;
30247;SDS011;17063;50.892;4.702;2022-08-02T01:29:50;8.73;;;2.67;;
30247;SDS011;17063;50.892;4.702;2022-08-02T01:32:22;5.03;;;2.23;;
30247;SDS011;17063;50.892;4.702;2022-08-02T01:34:53;5.07;;;2.40;;
30247;SDS011;17063;50.892;4.702;2022-08-02T01:37:25;4.13;;;2.30;;
30247;SDS011;17063;50.892;4.702;2022-08-02T01:39:56;5.43;;;2.40;;
30247;SDS011;17063;50.892;4.702;2022-08-02T01:42:46;6.70;;;2.63;;
30247;SDS011;17063;50.892;4.702;2022-08-02T01:45:16;4.97;;;2.63;;
30247;SDS011;17063;50.892;4.702;2022-08-02T01:47:45;6.90;;;2.40;;
30247;SDS011;17063;50.892;4.702;2022-08-02T01:50:13;4.77;;;2.60;;
30247;SDS011;17063;50.892;4.702;2022-08-02T01:52:46;7.50;;;3.10;;
30247;SDS011;17063;50.892;4.702;2022-08-02T01:55:23;3.30;;;2.30;;
30247;SDS011;17063;50.892;4.702;2022-08-02T01:58:02;5.17;;;2.70;;
30247;SDS011;17063;50.892;4.702;2022-08-02T02:00:31;5.53;;;2.73;;
30247;SDS011;17063;50.892;4.702;2022-08-02T02:03:00;5.20;;;2.77;;
30247;SDS011;17063;50.892;4.702;2022-08-02T02:05:28;4.70;;;2.67;;
30247;SDS011;17063;50.892;4.702;2022-08-02T02:07:57;4.80;;;2.40;;
30247;SDS011;17063;50.892;4.702;2022-08-02T02:10:25;5.03;;;2.80;;
30247;SDS011;17063;50.892;4.702;2022-08-02T02:12:55;5.33;;;2.67;;
30247;SDS011;17063;50.892;4.702;2022-08-02T02:15:25;6.20;;;2.90;;
30247;SDS011;17063;50.892;4.702;2022-08-02T02:17:55;5.70;;;2.60;;
30247;SDS011;17063;50.892;4.702;2022-08-02T02:20:38;3.97;;;2.93;;
30247;SDS011;17063;50.892;4.702;2022-08-02T02:23:05;7.37;;;3.30;;
30247;SDS011;17063;50.892;4.702;2022-08-02T02:25:33;6.10;;;3.10;;
30247;SDS011;17063;50.892;4.702;2022-08-02T02:28:10;5.90;;;2.70;;
30247;SDS011;17063;50.892;4.702;2022-08-02T02:30:41;4.07;;;2.57;;
30247;SDS011;17063;50.892;4.702;2022-08-02T02:33:12;5.00;;;2.20;;
30247;SDS011;17063;50.892;4.702;2022-08-02T02:35:39;3.70;;;2.40;;
30247;SDS011;17063;50.892;4.702;2022-08-02T02:38:08;4.53;;;2.40;;
30247;SDS011;17063;50.892;4.702;2022-08-02T02:40:36;4.07;;;2.20;;
30247;SDS011;17063;50.892;4.702;2022-08-02T02:43:04;8.53;;;3.33;;
30247;SDS011;17063;50.892;4.702;2022-08-02T02:45:31;4.93;;;2.57;;
30247;SDS011;17063;50.892;4.702;2022-08-02T02:47:59;4.23;;;2.70;;
30247;SDS011;17063;50.892;4.702;2022-08-02T02:50:27;4.73;;;2.67;;
30247;SDS011;17063;50.892;4.702;2022-08-02T02:52:55;3.63;;;2.40;;
30247;SDS011;17063;50.892;4.702;2022-08-02T02:55:23;6.23;;;2.53;;
30247;SDS011;17063;50.892;4.702;2022-08-02T02:57:51;4.93;;;2.53;;
30247;SDS011;17063;50.892;4.702;2022-08-02T03:00:19;5.13;;;3.00;;
30247;SDS011;17063;50.892;4.702;2022-08-02T03:03:07;5.83;;;2.43;;
30247;SDS011;17063;50.892;4.702;2022-08-02T03:05:35;4.47;;;2.47;;
30247;SDS011;17063;50.892;4.702;2022-08-02T03:08:02;6.07;;;2.50;;
30247;SDS011;17063;50.892;4.702;2022-08-02T03:10:29;8.77;;;2.80;;
30247;SDS011;17063;50.892;4.702;2022-08-02T03:12:58;4.23;;;2.47;;
30247;SDS011;17063;50.892;4.702;2022-08-02T03:15:26;5.43;;;2.60;;
30247;SDS011;17063;50.892;4.702;2022-08-02T03:17:54;4.87;;;2.30;;
30247;SDS011;17063;50.892;4.702;2022-08-02T03:20:21;5.77;;;2.47;;
30247;SDS011;17063;50.892;4.702;2022-08-02T03:22:48;3.93;;;2.60;;
30247;SDS011;17063;50.892;4.702;2022-08-02T03:25:16;5.57;;;2.70;;
30247;SDS011;17063;50.892;4.702;2022-08-02T03:27:43;4.20;;;2.60;;
30247;SDS011;17063;50.892;4.702;2022-08-02T03:30:11;4.50;;;2.93;;
30247;SDS011;17063;50.892;4.702;2022-08-02T03:32:40;5.00;;;2.60;;
30247;SDS011;17063;50.892;4.702;2022-08-02T03:35:09;5.77;;;2.70;;
30247;SDS011;17063;50.892;4.702;2022-08-02T03:37:37;8.57;;;2.80;;
30247;SDS011;17063;50.892;4.702;2022-08-02T03:40:07;4.40;;;2.33;;
30247;SDS011;17063;50.892;4.702;2022-08-02T03:42:35;5.70;;;2.60;;
30247;SDS011;17063;50.892;4.702;2022-08-02T03:45:03;6.10;;;2.20;;
30247;SDS011;17063;50.892;4.702;2022-08-02T03:47:34;6.37;;;2.70;;
30247;SDS011;17063;50.892;4.702;2022-08-02T03:50:04;7.87;;;2.77;;
30247;SDS011;17063;50.892;4.702;2022-08-02T03:52:32;3.57;;;2.60;;
30247;SDS011;17063;50.892;4.702;2022-08-02T03:54:59;4.57;;;2.40;;
30247;SDS011;17063;50.892;4.702;2022-08-02T03:57:26;5.23;;;3.03;;
30247;SDS011;17063;50.892;4.702;2022-08-02T03:59:53;3.93;;;2.80;;
30247;SDS011;17063;50.892;4.702;2022-08-02T04:02:19;3.93;;;2.80;;
30247;SDS011;17063;50.892;4.702;2022-08-02T04:04:46;4.67;;;2.40;;
30247;SDS011;17063;50.892;4.702;2022-08-02T04:07:13;4.23;;;2.70;;
30247;SDS011;17063;50.892;4.702;2022-08-02T04:09:59;4.50;;;2.53;;
30247;SDS011;17063;50.892;4.702;2022-08-02T04:12:26;5.87;;;2.73;;
30247;SDS011;17063;50.892;4.702;2022-08-02T04:14:54;7.37;;;2.43;;
30247;SDS011;17063;50.892;4.702;2022-08-02T04:17:21;6.27;;;2.70;;
30247;SDS011;17063;50.892;4.702;2022-08-02T04:19:49;6.37;;;2.70;;
30247;SDS011;17063;50.892;4.702;2022-08-02T04:22:30;3.53;;;2.40;;
30247;SDS011;17063;50.892;4.702;2022-08-02T04:25:04;3.63;;;2.47;;
30247;SDS011;17063;50.892;4.702;2022-08-02T04:27:34;4.50;;;2.60;;
30247;SDS011;17063;50.892;4.702;2022-08-02T04:30:16;3.27;;;2.60;;
30247;SDS011;17063;50.892;4.702;2022-08-02T04:32:44;7.00;;;2.70;;
30247;SDS011;17063;50.892;4.702;2022-08-02T04:35:11;8.13;;;2.53;;
30247;SDS011;17063;50.892;4.702;2022-08-02T04:37:46;5.17;;;2.77;;
30247;SDS011;17063;50.892;4.702;2022-08-02T04:40:34;9.13;;;2.50;;
30247;SDS011;17063;50.892;4.702;2022-08-02T04:43:01;3.60;;;2.40;;
30247;SDS011;17063;50.892;4.702;2022-08-02T04:45:28;3.90;;;2.67;;
30247;SDS011;17063;50.892;4.702;2022-08-02T04:47:56;4.20;;;2.97;;
30247;SDS011;17063;50.892;4.702;2022-08-02T04:50:31;4.50;;;2.50;;
30247;SDS011;17063;50.892;4.702;2022-08-02T04:52:59;4.77;;;2.70;;
30247;SDS011;17063;50.892;4.702;2022-08-02T04:55:27;4.80;;;2.77;;
30247;SDS011;17063;50.892;4.702;2022-08-02T04:57:55;5.17;;;2.70;;
30247;SDS011;17063;50.892;4.702;2022-08-02T05:00:32;8.63;;;2.90;;
30247;SDS011;17063;50.892;4.702;2022-08-02T05:02:59;6.00;;;3.00;;
30247;SDS011;17063;50.892;4.702;2022-08-02T05:05:26;5.57;;;2.70;;
30247;SDS011;17063;50.892;4.702;2022-08-02T05:07:53;9.10;;;3.17;;
30247;SDS011;17063;50.892;4.702;2022-08-02T05:10:20;7.67;;;3.30;;
30247;SDS011;17063;50.892;4.702;2022-08-02T05:12:47;6.40;;;3.40;;
30247;SDS011;17063;50.892;4.702;2022-08-02T05:15:15;11.40;;;3.30;;
30247;SDS011;17063;50.892;4.702;2022-08-02T05:17:44;4.53;;;2.90;;
30247;SDS011;17063;50.892;4.702;2022-08-02T05:20:14;7.93;;;3.10;;
30247;SDS011;17063;50.892;4.702;2022-08-02T05:22:42;3.83;;;2.80;;
30247;SDS011;17063;50.892;4.702;2022-08-02T05:25:09;8.00;;;3.40;;
30247;SDS011;17063;50.892;4.702;2022-08-02T05:27:35;6.17;;;3.20;;
30247;SDS011;17063;50.892;4.702;2022-08-02T05:30:03;5.33;;;3.03;;
30247;SDS011;17063;50.892;4.702;2022-08-02T05:32:30;4.93;;;3.43;;
30247;SDS011;17063;50.892;4.702;2022-08-02T05:34:59;4.43;;;3.07;;
30247;SDS011;17063;50.892;4.702;2022-08-02T05:37:27;6.70;;;3.13;;
30247;SDS011;17063;50.892;4.702;2022-08-02T05:39:58;4.73;;;3.23;;
30247;SDS011;17063;50.892;4.702;2022-08-02T05:42:31;8.20;;;3.50;;
30247;SDS011;17063;50.892;4.702;2022-08-02T05:44:58;5.33;;;3.20;;
30247;SDS011;17063;50.892;4.702;2022-08-02T05:47:25;4.47;;;3.17;;
30247;SDS011;17063;50.892;4.702;2022-08-02T05:49:52;5.40;;;3.27;;
30247;SDS011;17063;50.892;4.702;2022-08-02T05:52:20;5.23;;;3.30;;
30247;SDS011;17063;50.892;4.702;2022-08-02T06:00:09;9.27;;;3.67;;
30247;SDS011;17063;50.892;4.702;2022-08-02T06:05:13;4.43;;;3.23;;
30247;SDS011;17063;50.892;4.702;2022-08-02T06:07:41;6.20;;;3.40;;
30247;SDS011;17063;50.892;4.702;2022-08-02T06:10:10;4.60;;;3.03;;
30247;SDS011;17063;50.892;4.702;2022-08-02T06:12:45;7.07;;;3.20;;
30247;SDS011;17063;50.892;4.702;2022-08-02T06:15:16;4.60;;;2.93;;
30247;SDS011;17063;50.892;4.702;2022-08-02T06:17:44;4.53;;;3.17;;
30247;SDS011;17063;50.892;4.702;2022-08-02T06:20:13;4.23;;;3.37;;
30247;SDS011;17063;50.892;4.702;2022-08-02T06:22:42;3.80;;;3.03;;
30247;SDS011;17063;50.892;4.702;2022-08-02T06:25:11;7.07;;;2.83;;
30247;SDS011;17063;50.892;4.702;2022-08-02T06:27:59;6.07;;;3.17;;
30247;SDS011;17063;50.892;4.702;2022-08-02T06:30:27;4.27;;;2.87;;
30247;SDS011;17063;50.892;4.702;2022-08-02T06:32:55;4.87;;;3.13;;
30247;SDS011;17063;50.892;4.702;2022-08-02T06:35:32;7.93;;;3.40;;
30247;SDS011;17063;50.892;4.702;2022-08-02T06:38:02;3.47;;;3.17;;
30247;SDS011;17063;50.892;4.702;2022-08-02T06:40:41;5.87;;;3.30;;
30247;SDS011;17063;50.892;4.702;2022-08-02T06:43:12;4.97;;;2.90;;
30247;SDS011;17063;50.892;4.702;2022-08-02T06:45:44;3.20;;;2.90;;
30247;SDS011;17063;50.892;4.702;2022-08-02T06:48:11;4.70;;;3.30;;
30247;SDS011;17063;50.892;4.702;2022-08-02T06:50:38;9.70;;;3.90;;
30247;SDS011;17063;50.892;4.702;2022-08-02T06:53:08;9.73;;;3.90;;
30247;SDS011;17063;50.892;4.702;2022-08-02T06:55:36;5.00;;;3.60;;
30247;SDS011;17063;50.892;4.702;2022-08-02T06:58:09;4.47;;;3.20;;
30247;SDS011;17063;50.892;4.702;2022-08-02T07:00:37;5.37;;;3.10;;
30247;SDS011;17063;50.892;4.702;2022-08-02T07:03:04;5.17;;;3.43;;
30247;SDS011;17063;50.892;4.702;2022-08-02T07:05:31;8.20;;;3.30;;
30247;SDS011;17063;50.892;4.702;2022-08-02T07:08:01;5.60;;;3.13;;
30247;SDS011;17063;50.892;4.702;2022-08-02T07:10:29;3.97;;;2.33;;
30247;SDS011;17063;50.892;4.702;2022-08-02T07:12:56;6.00;;;2.33;;
30247;SDS011;17063;50.892;4.702;2022-08-02T07:15:25;3.73;;;2.43;;
30247;SDS011;17063;50.892;4.702;2022-08-02T07:17:52;4.20;;;2.07;;
30247;SDS011;17063;50.892;4.702;2022-08-02T07:20:20;2.13;;;1.90;;
30247;SDS011;17063;50.892;4.702;2022-08-02T07:22:47;2.40;;;1.80;;
30247;SDS011;17063;50.892;4.702;2022-08-02T07:25:14;3.50;;;1.80;;
30247;SDS011;17063;50.892;4.702;2022-08-02T07:27:41;2.60;;;1.80;;
30247;SDS011;17063;50.892;4.702;2022-08-02T07:30:08;2.17;;;1.63;;
30247;SDS011;17063;50.892;4.702;2022-08-02T07:32:36;2.87;;;2.00;;
30247;SDS011;17063;50.892;4.702;2022-08-02T07:35:03;2.40;;;1.77;;
30247;SDS011;17063;50.892;4.702;2022-08-02T07:37:33;5.03;;;2.50;;
30247;SDS011;17063;50.892;4.702;2022-08-02T07:40:23;3.93;;;2.07;;
30247;SDS011;17063;50.892;4.702;2022-08-02T07:42:51;2.47;;;2.03;;
30247;SDS011;17063;50.892;4.702;2022-08-02T07:45:25;4.63;;;1.80;;
30247;SDS011;17063;50.892;4.702;2022-08-02T07:47:53;4.83;;;2.17;;
30247;SDS011;17063;50.892;4.702;2022-08-02T07:50:20;4.53;;;2.20;;
30247;SDS011;17063;50.892;4.702;2022-08-02T07:52:47;2.43;;;2.17;;
30247;SDS011;17063;50.892;4.702;2022-08-02T07:55:23;3.10;;;2.30;;
30247;SDS011;17063;50.892;4.702;2022-08-02T07:58:05;3.50;;;2.20;;
30247;SDS011;17063;50.892;4.702;2022-08-02T08:00:41;2.10;;;1.97;;
30247;SDS011;17063;50.892;4.702;2022-08-02T08:03:09;2.43;;;1.93;;
30247;SDS011;17063;50.892;4.702;2022-08-02T08:05:36;2.33;;;1.90;;
30247;SDS011;17063;50.892;4.702;2022-08-02T08:08:06;1.80;;;1.70;;
30247;SDS011;17063;50.892;4.702;2022-08-02T08:10:46;1.80;;;1.70;;
30247;SDS011;17063;50.892;4.702;2022-08-02T08:13:14;5.67;;;1.63;;
30247;SDS011;17063;50.892;4.702;2022-08-02T08:15:42;1.37;;;1.37;;
30247;SDS011;17063;50.892;4.702;2022-08-02T08:18:35;3.13;;;1.50;;
30247;SDS011;17063;50.892;4.702;2022-08-02T08:21:35;1.40;;;1.30;;
30247;SDS011;17063;50.892;4.702;2022-08-02T08:24:32;2.60;;;1.17;;
30247;SDS011;17063;50.892;4.702;2022-08-02T08:27:00;2.07;;;1.20;;
30247;SDS011;17063;50.892;4.702;2022-08-02T08:29:30;3.83;;;1.27;;
30247;SDS011;17063;50.892;4.702;2022-08-02T08:31:57;3.23;;;1.60;;
30247;SDS011;17063;50.892;4.702;2022-08-02T08:34:25;2.40;;;1.60;;
30247;SDS011;17063;50.892;4.702;2022-08-02T08:36:56;1.80;;;1.40;;
30247;SDS011;17063;50.892;4.702;2022-08-02T08:39:23;3.00;;;1.50;;
30247;SDS011;17063;50.892;4.702;2022-08-02T08:41:50;2.67;;;1.37;;
30247;SDS011;17063;50.892;4.702;2022-08-02T08:44:18;2.47;;;1.60;;
30247;SDS011;17063;50.892;4.702;2022-08-02T08:46:57;2.00;;;1.63;;
30247;SDS011;17063;50.892;4.702;2022-08-02T08:50:24;2.93;;;1.50;;
30247;SDS011;17063;50.892;4.702;2022-08-02T08:53:15;2.37;;;1.27;;
30247;SDS011;17063;50.892;4.702;2022-08-02T08:56:15;1.40;;;1.30;;
30247;SDS011;17063;50.892;4.702;2022-08-02T08:58:42;11.67;;;1.83;;
30247;SDS011;17063;50.892;4.702;2022-08-02T09:01:11;2.90;;;1.33;;
30247;SDS011;17063;50.892;4.702;2022-08-02T09:03:43;3.93;;;1.50;;
30247;SDS011;17063;50.892;4.702;2022-08-02T09:06:45;2.90;;;1.50;;
30247;SDS011;17063;50.892;4.702;2022-08-02T09:09:16;2.43;;;1.50;;
30247;SDS011;17063;50.892;4.702;2022-08-02T09:11:48;6.23;;;1.40;;
30247;SDS011;17063;50.892;4.702;2022-08-02T09:17:31;4.70;;;1.40;;
30247;SDS011;17063;50.892;4.702;2022-08-02T09:20:25;4.43;;;1.80;;
30247;SDS011;17063;50.892;4.702;2022-08-02T09:23:12;8.70;;;1.60;;
30247;SDS011;17063;50.892;4.702;2022-08-02T09:26:01;4.13;;;1.60;;
30247;SDS011;17063;50.892;4.702;2022-08-02T09:29:01;5.93;;;2.00;;
30247;SDS011;17063;50.892;4.702;2022-08-02T09:31:28;3.30;;;1.47;;
30247;SDS011;17063;50.892;4.702;2022-08-02T09:34:00;5.33;;;1.70;;
30247;SDS011;17063;50.892;4.702;2022-08-02T09:36:45;3.33;;;1.57;;
30247;SDS011;17063;50.892;4.702;2022-08-02T09:39:15;3.43;;;1.40;;
30247;SDS011;17063;50.892;4.702;2022-08-02T09:41:43;2.67;;;1.47;;
30247;SDS011;17063;50.892;4.702;2022-08-02T09:44:17;2.37;;;1.60;;
30247;SDS011;17063;50.892;4.702;2022-08-02T09:47:17;7.67;;;1.57;;
30247;SDS011;17063;50.892;4.702;2022-08-02T09:49:51;4.27;;;1.67;;
30247;SDS011;17063;50.892;4.702;2022-08-02T09:52:34;2.20;;;1.50;;
30247;SDS011;17063;50.892;4.702;2022-08-02T09:55:38;4.10;;;1.80;;
30247;SDS011;17063;50.892;4.702;2022-08-02T09:58:18;1.90;;;1.40;;
30247;SDS011;17063;50.892;4.702;2022-08-02T10:00:51;1.50;;;1.40;;
30247;SDS011;17063;50.892;4.702;2022-08-02T10:03:20;3.37;;;1.60;;
30247;SDS011;17063;50.892;4.702;2022-08-02T10:05:50;4.27;;;1.43;;
30247;SDS011;17063;50.892;4.702;2022-08-02T10:08:28;2.63;;;1.47;;
30247;SDS011;17063;50.892;4.702;2022-08-02T10:10:59;3.50;;;1.30;;
30247;SDS011;17063;50.892;4.702;2022-08-02T10:13:32;2.50;;;1.50;;
30247;SDS011;17063;50.892;4.702;2022-08-02T10:16:17;3.70;;;1.50;;
30247;SDS011;17063;50.892;4.702;2022-08-02T10:18:59;1.60;;;1.50;;
30247;SDS011;17063;50.892;4.702;2022-08-02T10:21:35;2.43;;;1.80;;
30247;SDS011;17063;50.892;4.702;2022-08-02T10:24:23;1.70;;;1.17;;
30247;SDS011;17063;50.892;4.702;2022-08-02T10:27:13;4.43;;;1.30;;
30247;SDS011;17063;50.892;4.702;2022-08-02T10:30:27;2.57;;;1.43;;
30247;SDS011;17063;50.892;4.702;2022-08-02T10:32:55;1.40;;;1.30;;
30247;SDS011;17063;50.892;4.702;2022-08-02T10:35:31;3.20;;;1.33;;
30247;SDS011;17063;50.892;4.702;2022-08-02T10:38:01;3.00;;;1.30;;
30247;SDS011;17063;50.892;4.702;2022-08-02T10:40:51;1.57;;;1.10;;
30247;SDS011;17063;50.892;4.702;2022-08-02T10:49:16;1.20;;;1.00;;
30247;SDS011;17063;50.892;4.702;2022-08-02T10:52:17;3.90;;;1.30;;
30247;SDS011;17063;50.892;4.702;2022-08-02T10:55:08;1.10;;;1.00;;
30247;SDS011;17063;50.892;4.702;2022-08-02T10:58:23;1.97;;;1.07;;
30247;SDS011;17063;50.892;4.702;2022-08-02T11:01:05;2.00;;;1.00;;
30247;SDS011;17063;50.892;4.702;2022-08-02T11:04:05;1.03;;;0.93;;
30247;SDS011;17063;50.892;4.702;2022-08-02T11:07:05;1.40;;;1.23;;
30247;SDS011;17063;50.892;4.702;2022-08-02T11:09:52;4.77;;;1.30;;
30247;SDS011;17063;50.892;4.702;2022-08-02T11:12:22;2.83;;;1.17;;
30247;SDS011;17063;50.892;4.702;2022-08-02T11:14:59;1.00;;;1.00;;
30247;SDS011;17063;50.892;4.702;2022-08-02T11:17:50;1.83;;;1.30;;
30247;SDS011;17063;50.892;4.702;2022-08-02T11:20:25;4.50;;;1.40;;
30247;SDS011;17063;50.892;4.702;2022-08-02T11:22:53;2.27;;;1.37;;
30247;SDS011;17063;50.892;4.702;2022-08-02T11:30:18;2.90;;;1.00;;
30247;SDS011;17063;50.892;4.702;2022-08-02T11:32:56;1.20;;;1.10;;
30247;SDS011;17063;50.892;4.702;2022-08-02T11:35:45;1.43;;;1.13;;
30247;SDS011;17063;50.892;4.702;2022-08-02T11:38:15;1.90;;;1.20;;
30247;SDS011;17063;50.892;4.702;2022-08-02T11:40:49;2.33;;;1.20;;
30247;SDS011;17063;50.892;4.702;2022-08-02T11:43:23;2.17;;;1.30;;
30247;SDS011;17063;50.892;4.702;2022-08-02T11:46:03;1.17;;;1.10;;
30247;SDS011;17063;50.892;4.702;2022-08-02T11:51:12;1.30;;;1.20;;
30247;SDS011;17063;50.892;4.702;2022-08-02T11:53:41;2.70;;;1.00;;
30247;SDS011;17063;50.892;4.702;2022-08-02T11:56:09;1.13;;;1.10;;
30247;SDS011;17063;50.892;4.702;2022-08-02T11:58:38;1.20;;;1.10;;
30247;SDS011;17063;50.892;4.702;2022-08-02T12:01:07;2.13;;;1.40;;
30247;SDS011;17063;50.892;4.702;2022-08-02T12:03:37;4.97;;;1.40;;
30247;SDS011;17063;50.892;4.702;2022-08-02T12:06:05;1.80;;;1.10;;
30247;SDS011;17063;50.892;4.702;2022-08-02T12:08:42;1.10;;;1.07;;
30247;SDS011;17063;50.892;4.702;2022-08-02T12:11:20;1.40;;;0.90;;
30247;SDS011;17063;50.892;4.702;2022-08-02T12:13:46;1.87;;;1.10;;
30247;SDS011;17063;50.892;4.702;2022-08-02T12:16:32;3.70;;;1.27;;
30247;SDS011;17063;50.892;4.702;2022-08-02T12:19:42;4.60;;;1.10;;
30247;SDS011;17063;50.892;4.702;2022-08-02T12:22:42;4.07;;;1.67;;
30247;SDS011;17063;50.892;4.702;2022-08-02T12:25:16;3.43;;;1.40;;
30247;SDS011;17063;50.892;4.702;2022-08-02T12:30:50;1.10;;;1.00;;
30247;SDS011;17063;50.892;4.702;2022-08-02T12:33:19;5.83;;;1.10;;
30247;SDS011;17063;50.892;4.702;2022-08-02T12:35:47;3.70;;;1.03;;
30247;SDS011;17063;50.892;4.702;2022-08-02T12:38:16;3.03;;;1.20;;
30247;SDS011;17063;50.892;4.702;2022-08-02T12:40:46;1.17;;;1.07;;
30247;SDS011;17063;50.892;4.702;2022-08-02T12:43:22;1.57;;;1.20;;
30247;SDS011;17063;50.892;4.702;2022-08-02T12:46:01;1.57;;;1.30;;
30247;SDS011;17063;50.892;4.702;2022-08-02T12:48:35;1.50;;;1.20;;
30247;SDS011;17063;50.892;4.702;2022-08-02T12:51:41;1.33;;;1.10;;
30247;SDS011;17063;50.892;4.702;2022-08-02T12:54:27;1.93;;;1.20;;
30247;SDS011;17063;50.892;4.702;2022-08-02T12:57:08;1.30;;;1.17;;
30247;SDS011;17063;50.892;4.702;2022-08-02T12:59:39;1.73;;;1.17;;
30247;SDS011;17063;50.892;4.702;2022-08-02T13:02:08;3.53;;;1.00;;
30247;SDS011;17063;50.892;4.702;2022-08-02T13:04:43;1.03;;;0.90;;
30247;SDS011;17063;50.892;4.702;2022-08-02T13:07:16;3.50;;;1.00;;
30247;SDS011;17063;50.892;4.702;2022-08-02T13:09:46;2.10;;;1.00;;
30247;SDS011;17063;50.892;4.702;2022-08-02T13:12:14;1.67;;;1.17;;
30247;SDS011;17063;50.892;4.702;2022-08-02T13:14:42;5.07;;;1.20;;
30247;SDS011;17063;50.892;4.702;2022-08-02T13:17:13;3.63;;;1.10;;
30247;SDS011;17063;50.892;4.702;2022-08-02T13:19:40;3.50;;;1.10;;
30247;SDS011;17063;50.892;4.702;2022-08-02T13:22:08;1.80;;;0.97;;
30247;SDS011;17063;50.892;4.702;2022-08-02T13:24:36;5.67;;;1.40;;
30247;SDS011;17063;50.892;4.702;2022-08-02T13:27:25;2.63;;;1.23;;
30247;SDS011;17063;50.892;4.702;2022-08-02T13:30:03;3.90;;;1.30;;
30247;SDS011;17063;50.892;4.702;2022-08-02T13:32:33;2.10;;;0.90;;
30247;SDS011;17063;50.892;4.702;2022-08-02T13:35:00;2.77;;;1.13;;
30247;SDS011;17063;50.892;4.702;2022-08-02T13:37:30;3.40;;;1.20;;
30247;SDS011;17063;50.892;4.702;2022-08-02T13:40:05;0.80;;;0.80;;
30247;SDS011;17063;50.892;4.702;2022-08-02T13:42:48;3.27;;;1.23;;
30247;SDS011;17063;50.892;4.702;2022-08-02T13:45:15;1.90;;;1.80;;
30247;SDS011;17063;50.892;4.702;2022-08-02T13:47:42;2.37;;;1.37;;
30247;SDS011;17063;50.892;4.702;2022-08-02T13:50:30;4.67;;;1.20;;
30247;SDS011;17063;50.892;4.702;2022-08-02T13:52:57;1.57;;;1.10;;
30247;SDS011;17063;50.892;4.702;2022-08-02T13:55:29;5.77;;;1.40;;
30247;SDS011;17063;50.892;4.702;2022-08-02T13:58:42;5.70;;;1.03;;
30247;SDS011;17063;50.892;4.702;2022-08-02T14:01:49;7.70;;;1.13;;
30247;SDS011;17063;50.892;4.702;2022-08-02T14:04:17;1.27;;;1.00;;
30247;SDS011;17063;50.892;4.702;2022-08-02T14:06:44;4.20;;;0.97;;
30247;SDS011;17063;50.892;4.702;2022-08-02T14:09:10;1.20;;;1.10;;
30247;SDS011;17063;50.892;4.702;2022-08-02T14:11:42;1.70;;;1.00;;
30247;SDS011;17063;50.892;4.702;2022-08-02T14:14:10;3.97;;;1.33;;
30247;SDS011;17063;50.892;4.702;2022-08-02T14:16:41;1.17;;;1.07;;
30247;SDS011;17063;50.892;4.702;2022-08-02T14:19:09;1.67;;;1.40;;
30247;SDS011;17063;50.892;4.702;2022-08-02T14:21:47;6.80;;;1.30;;
30247;SDS011;17063;50.892;4.702;2022-08-02T14:24:49;3.27;;;1.10;;
30247;SDS011;17063;50.892;4.702;2022-08-02T14:27:41;1.93;;;1.13;;
30247;SDS011;17063;50.892;4.702;2022-08-02T14:30:38;2.33;;;1.00;;
30247;SDS011;17063;50.892;4.702;2022-08-02T14:33:44;2.87;;;1.13;;
30247;SDS011;17063;50.892;4.702;2022-08-02T14:36:14;2.00;;;0.90;;
30247;SDS011;17063;50.892;4.702;2022-08-02T14:38:54;3.70;;;1.10;;
30247;SDS011;17063;50.892;4.702;2022-08-02T14:41:22;4.17;;;1.17;;
30247;SDS011;17063;50.892;4.702;2022-08-02T14:43:50;1.83;;;1.10;;
30247;SDS011;17063;50.892;4.702;2022-08-02T14:46:36;2.57;;;1.00;;
30247;SDS011;17063;50.892;4.702;2022-08-02T14:49:09;2.73;;;1.20;;
30247;SDS011;17063;50.892;4.702;2022-08-02T14:51:52;1.67;;;1.00;;
30247;SDS011;17063;50.892;4.702;2022-08-02T14:55:07;2.37;;;1.10;;
30247;SDS011;17063;50.892;4.702;2022-08-02T14:58:22;1.93;;;1.20;;
30247;SDS011;17063;50.892;4.702;2022-08-02T15:01:19;2.03;;;0.90;;
30247;SDS011;17063;50.892;4.702;2022-08-02T15:04:17;2.73;;;1.10;;
30247;SDS011;17063;50.892;4.702;2022-08-02T15:06:46;2.10;;;0.90;;
30247;SDS011;17063;50.892;4.702;2022-08-02T15:09:12;5.27;;;1.20;;
30247;SDS011;17063;50.892;4.702;2022-08-02T15:11:40;0.80;;;0.80;;
30247;SDS011;17063;50.892;4.702;2022-08-02T15:14:14;1.53;;;1.10;;
30247;SDS011;17063;50.892;4.702;2022-08-02T15:16:46;2.63;;;1.30;;
30247;SDS011;17063;50.892;4.702;2022-08-02T15:19:25;2.53;;;1.20;;
30247;SDS011;17063;50.892;4.702;2022-08-02T15:22:20;3.73;;;1.10;;
30247;SDS011;17063;50.892;4.702;2022-08-02T15:25:17;3.43;;;1.07;;
30247;SDS011;17063;50.892;4.702;2022-08-02T15:28:27;1.63;;;1.00;;
30247;SDS011;17063;50.892;4.702;2022-08-02T15:31:05;1.20;;;1.10;;
30247;SDS011;17063;50.892;4.702;2022-08-02T15:34:09;2.03;;;1.10;;
30247;SDS011;17063;50.892;4.702;2022-08-02T15:36:40;3.27;;;1.13;;
30247;SDS011;17063;50.892;4.702;2022-08-02T15:39:22;4.43;;;1.03;;
30247;SDS011;17063;50.892;4.702;2022-08-02T15:41:50;4.10;;;1.10;;
30247;SDS011;17063;50.892;4.702;2022-08-02T15:44:18;2.70;;;1.00;;
30247;SDS011;17063;50.892;4.702;2022-08-02T15:46:47;3.03;;;1.00;;
30247;SDS011;17063;50.892;4.702;2022-08-02T15:49:20;2.03;;;1.00;;
30247;SDS011;17063;50.892;4.702;2022-08-02T15:51:59;1.60;;;0.90;;
30247;SDS011;17063;50.892;4.702;2022-08-02T15:54:31;6.77;;;1.50;;
30247;SDS011;17063;50.892;4.702;2022-08-02T15:57:50;1.93;;;1.10;;
30247;SDS011;17063;50.892;4.702;2022-08-02T16:01:02;3.27;;;1.10;;
30247;SDS011;17063;50.892;4.702;2022-08-02T16:04:14;2.27;;;1.00;;
30247;SDS011;17063;50.892;4.702;2022-08-02T16:07:18;4.37;;;1.20;;